Date,TemperatureHighF,TemperatureAvgF,TemperatureLowF,DewpointHighF,DewpointAvgF,DewpointLowF,HumidityHigh,HumidityAvg,HumidityLow,PressureMaxIn,PressureMinIn,WindSpeedMaxMPH,WindSpeedAvgMPH,GustSpeedMaxMPH,PrecipitationSumIn
2013-1-22,13,10,9,3,-8,-100,65,52,49,30.02,29.97,6,-55,0,0.00
2013-1-23,19,10,4,3,-2,-6,90,58,35,30.06,29.97,10,3,0,0.00
2013-1-24,22,13,3,3,0,-3,91,61,34,30.23,29.94,9,3,0,0.00
2013-1-25,24,14,8,13,4,-3,94,66,39,30.22,29.85,6,2,0,0.00
2013-1-26,27,17,8,10,7,5,95,68,41,30.18,29.84,9,3,0,0.00
2013-1-27,34,22,11,13,10,7,85,62,37,30.31,30.18,9,2,0,0.00
2013-1-28,33,27,18,33,24,12,99,86,69,30.27,29.78,6,2,0,0.06
2013-1-29,53,42,33,44,39,33,99,91,66,29.92,29.78,7,2,0,0.32
2013-1-30,62,47,38,59,46,38,99,98,89,29.85,29.12,8,2,0,0.35
2013-1-31,61,41,26,60,29,9,99,65,39,29.61,28.85,29,10,0,1.19
2013-2-1,30,24,19,16,12,4,83,59,34,30.06,29.61,12,4,0,0.00
2013-2-2,26,20,13,19,10,5,93,67,41,30.12,29.88,9,4,0,0.00
2013-2-3,32,22,16,21,18,15,98,85,58,29.87,29.63,8,1,0,0.02
2013-2-4,30,23,18,20,11,8,91,60,41,29.81,29.65,16,4,0,0.00
2013-2-5,30,26,22,27,22,16,97,85,71,29.81,29.74,5,2,0,0.00
2013-2-6,38,30,24,27,20,9,99,70,45,30.21,29.77,11,3,0,0.04
2013-2-7,31,23,16,18,11,9,78,62,43,30.35,30.18,5,2,0,0.00
2013-2-8,33,30,27,32,28,18,99,92,68,30.17,29.53,10,5,0,0.00
2013-2-9,34,25,16,28,16,7,99,72,37,30.20,29.61,13,4,0,0.00
2013-2-10,40,30,24,20,15,10,76,53,34,30.32,30.16,5,2,0,0.17
2013-2-11,42,36,28,41,34,18,99,93,66,30.15,29.51,7,2,0,0.24
2013-2-12,44,37,31,37,26,23,99,64,50,29.83,29.57,15,4,0,0.00
2013-2-13,45,32,20,32,25,19,99,78,46,29.81,29.56,6,1,0,0.00
2013-2-14,42,34,28,33,29,25,99,85,51,29.86,29.58,4,1,0,0.24
2013-2-15,53,40,27,34,29,25,96,69,40,29.87,29.78,14,4,0,0.03
2013-2-16,34,31,26,33,23,12,99,74,53,29.83,29.62,8,3,0,0.07
2013-2-17,30,23,14,11,5,0,63,46,35,29.86,29.55,17,6,0,0.00
2013-2-18,34,22,12,12,6,0,65,51,32,30.11,29.87,11,4,0,0.00
2013-2-19,42,36,19,39,31,14,99,85,53,29.93,29.56,10,3,0,0.37
2013-2-20,33,27,21,24,14,9,72,60,45,29.84,29.59,17,6,0,0.00
2013-2-21,33,24,18,15,12,10,76,61,45,30.17,29.84,16,5,0,0.00
2013-2-22,37,28,18,30,20,12,89,73,54,30.27,30.13,5,3,0,0.00
2013-2-23,39,35,32,39,34,30,99,98,90,30.14,29.72,7,3,0,0.19
2013-2-24,46,36,29,38,28,21,99,72,55,29.86,29.64,8,4,0,0.00
2013-2-25,42,34,26,28,26,21,86,74,57,30.11,29.86,7,2,0,0.00
2013-2-26,42,34,24,33,29,23,99,85,64,30.16,29.76,12,4,0,0.05
2013-2-27,45,40,33,44,38,33,99,94,82,29.76,29.38,17,5,0,0.52
2013-2-28,47,39,33,37,32,26,99,79,52,29.49,29.42,6,2,0,0.00
2013-3-1,45,36,30,30,28,25,94,73,52,29.66,29.48,10,3,0,0.00
2013-3-2,37,32,28,25,23,20,84,70,58,29.66,29.58,10,4,0,0.00
2013-3-3,38,29,25,21,18,15,74,63,48,29.64,29.54,11,5,0,0.00
2013-3-4,40,31,24,21,18,14,73,60,44,29.80,29.64,9,5,0,0.00
2013-3-5,48,36,28,27,24,20,74,61,41,29.89,29.80,9,3,0,0.04
2013-3-6,41,37,35,35,30,26,91,75,68,29.84,29.73,17,8,0,0.01
2013-3-7,40,35,30,32,28,24,98,77,62,29.97,29.83,11,5,0,0.00
2013-3-8,42,34,28,34,29,25,99,85,66,30.10,29.89,9,4,0,0.19
2013-3-9,58,40,28,26,23,15,84,55,18,30.20,30.07,7,3,0,0.00
2013-3-10,53,38,23,35,29,22,97,74,42,30.26,30.14,8,2,0,0.00
2013-3-11,55,44,35,48,40,33,99,89,52,30.19,29.95,9,3,0,0.00
2013-3-12,57,50,40,56,49,36,99,95,84,29.94,29.54,11,4,0,1.80
2013-3-13,51,39,31,36,29,23,99,69,37,29.76,29.66,12,3,0,0.00
2013-3-14,42,32,27,26,13,6,71,46,27,29.82,29.71,18,5,0,0.00
2013-3-15,44,34,24,30,20,11,69,54,44,29.85,29.58,11,4,0,0.00
2013-3-16,38,32,27,30,25,20,95,75,55,29.78,29.64,5,2,0,0.00
2013-3-17,36,29,24,29,21,14,99,74,44,30.13,29.78,8,3,0,0.05
2013-3-18,33,29,26,30,24,9,99,84,48,30.26,29.87,9,5,0,0.00
2013-3-19,48,36,31,37,32,18,99,88,52,29.82,29.56,8,4,0,0.44
2013-3-20,44,35,28,24,20,16,72,54,36,29.74,29.64,17,4,0,0.00
2013-3-21,38,30,26,28,18,11,92,64,34,29.71,29.49,11,3,0,0.00
2013-3-22,41,32,24,20,18,12,73,56,41,29.67,29.61,7,4,0,0.00
2013-3-23,46,37,30,22,19,17,65,49,36,29.81,29.70,10,4,0,0.00
2013-3-24,46,37,27,24,21,18,69,53,39,29.82,29.57,8,4,0,0.00
2013-3-25,38,36,32,34,26,23,96,66,55,29.57,29.35,8,5,0,0.01
2013-3-26,52,48,44,34,29,25,67,48,37,29.64,29.61,10,6,0,0.00
2013-3-27,51,49,45,30,26,22,55,40,33,29.80,29.75,9,6,0,0.00
2013-3-28,46,43,40,31,30,29,70,60,51,30.00,29.88,8,6,0,0.00
2013-3-29,53,47,36,30,28,26,72,48,36,30.03,29.95,10,5,0,0.00
2013-3-30,59,53,34,25,22,15,69,33,18,30.02,29.94,7,3,0,0.00
2013-3-31,58,40,26,43,32,23,99,76,38,30.00,29.55,11,2,0,0.26
2013-4-1,59,44,32,45,34,12,99,70,34,29.78,29.51,20,4,0,0.04
2013-4-2,43,33,26,19,14,11,61,46,28,29.96,29.79,16,4,0,0.00
2013-4-3,45,33,28,14,12,10,57,42,25,30.18,29.95,11,4,0,0.00
2013-4-4,55,38,28,25,19,14,61,47,29,30.25,29.95,8,3,0,0.00
2013-4-5,64,53,33,29,24,21,73,35,22,29.82,29.61,10,4,0,0.00
2013-4-6,54,49,35,21,12,8,55,23,16,30.17,29.94,8,4,0,0.00
2013-4-7,64,58,44,40,35,28,62,43,34,30.12,29.86,9,6,0,0.00
2013-4-8,78,68,51,45,42,39,68,40,26,29.97,29.85,9,4,0,0.00
2013-4-9,83,67,50,52,45,37,88,50,20,29.86,29.77,20,4,0,0.00
2013-4-10,80,64,52,58,52,42,99,69,43,29.82,29.67,14,2,0,0.78
2013-4-11,61,54,45,58,50,42,99,88,59,29.91,29.65,10,4,0,0.00
2013-4-12,45,41,38,43,39,38,99,94,77,29.87,29.60,12,6,0,0.48
2013-4-13,58,46,35,44,37,33,99,73,41,29.84,29.63,11,2,0,0.01
2013-4-14,58,50,42,37,31,27,71,50,34,30.08,29.83,9,3,0,0.00
2013-4-15,60,49,39,39,31,27,76,52,40,30.25,30.09,7,4,0,0.00
2013-4-16,70,58,45,56,49,39,89,73,57,30.24,29.98,9,3,0,0.00
2013-4-17,74,60,49,57,42,32,92,56,22,30.17,30.00,6,3,0,0.00
2013-4-18,57,50,41,51,44,38,99,82,51,30.22,29.97,10,3,0,0.00
2013-4-19,78,64,52,66,60,52,99,88,64,29.97,29.49,10,4,0,1.05
2013-4-20,58,50,41,51,35,22,99,60,32,30.19,29.56,12,5,0,0.19
2013-4-21,55,43,32,26,22,19,65,45,27,30.50,30.21,9,3,0,0.00
2013-4-22,55,43,30,35,31,26,94,63,43,30.54,30.37,11,4,0,0.00
2013-4-23,51,43,36,41,36,31,93,78,70,30.36,30.01,8,4,0,0.00
2013-4-24,73,55,33,54,46,33,99,74,48,30.00,29.66,10,3,0,0.00
2013-4-25,69,54,42,54,31,22,85,45,18,30.14,29.73,15,4,0,0.00
2013-4-26,68,52,37,36,30,23,86,48,20,30.30,30.14,7,2,0,0.00
2013-4-27,73,55,34,35,32,27,88,46,23,30.32,30.14,7,2,0,0.00
2013-4-28,72,57,37,43,37,31,93,52,31,30.19,30.05,8,2,0,0.00
2013-4-29,55,51,50,50,48,38,99,90,54,30.11,30.06,8,3,0,0.12
2013-4-30,68,55,42,51,40,26,99,65,26,30.22,30.08,8,3,0,0.00
2013-5-1,69,53,34,45,36,27,92,58,23,30.36,30.22,8,2,0,0.00
2013-5-2,77,58,37,46,41,36,99,61,29,30.36,30.20,5,1,0,0.00
2013-5-3,67,56,44,43,38,33,88,54,29,30.34,30.22,9,3,0,0.00
2013-5-4,72,54,38,46,41,38,99,68,31,30.25,30.09,8,2,0,0.00
2013-5-5,66,50,36,44,40,36,99,72,34,30.17,30.08,7,2,0,0.01
2013-5-6,71,54,37,55,47,36,99,80,51,30.15,30.02,7,2,0,0.00
2013-5-7,74,60,43,58,52,42,99,78,50,30.05,29.95,7,2,0,0.00
2013-5-8,67,60,52,63,59,52,99,95,83,29.97,29.83,7,3,0,2.21
2013-5-9,72,58,50,59,54,50,99,88,58,29.87,29.77,5,1,0,0.20
2013-5-10,81,67,51,60,56,51,99,73,41,29.89,29.77,7,1,0,0.00
2013-5-11,73,65,60,66,62,59,99,93,73,29.78,29.58,7,2,0,0.90
2013-5-12,67,58,46,59,41,26,99,58,25,29.82,29.54,14,4,0,0.00
2013-5-13,55,46,37,34,30,26,86,54,34,30.00,29.81,10,3,0,0.00
2013-5-14,64,48,33,34,29,20,93,56,21,30.03,29.90,6,2,0,0.00
2013-5-15,78,56,37,58,47,34,92,71,50,29.95,29.55,6,2,0,0.00
2013-5-16,85,67,51,60,53,46,99,66,30,29.72,29.59,7,1,0,0.00
2013-5-17,77,62,50,44,42,39,79,50,28,30.09,29.73,7,2,0,0.00
2013-5-18,65,56,46,56,50,44,94,81,52,30.19,30.09,5,1,0,0.01
2013-5-19,58,56,54,58,56,54,99,98,92,30.19,30.06,5,2,0,0.34
2013-5-20,85,68,56,69,63,56,99,85,59,30.06,29.83,7,2,0,0.00
2013-5-21,99,76,59,74,67,59,99,77,44,29.85,29.72,6,2,0,0.00
2013-5-22,95,75,63,76,68,61,99,81,51,29.80,29.69,7,2,0,0.00
2013-5-23,85,70,62,73,67,61,99,91,62,29.76,29.62,8,2,0,1.18
2013-5-24,63,52,42,63,50,41,99,95,87,29.85,29.56,9,3,0,1.23
2013-5-25,56,48,42,45,41,37,98,80,55,29.91,29.80,11,4,0,0.20
2013-5-26,74,56,43,40,37,32,84,54,25,30.10,29.87,16,4,0,0.00
2013-5-27,88,60,36,46,40,36,99,57,18,30.14,30.01,7,2,0,0.00
2013-5-28,68,55,46,56,51,44,99,88,56,30.11,30.01,4,0,0,0.76
2013-5-29,90,72,56,71,63,56,99,77,49,30.01,29.88,7,2,0,0.01
2013-5-30,102,82,67,68,65,61,91,60,31,30.02,29.95,6,2,0,0.00
2013-5-31,104,82,64,74,65,60,96,61,28,30.02,29.88,7,1,0,0.00
2013-6-1,98,80,66,72,67,61,92,68,43,29.91,29.78,7,2,0,0.00
2013-6-2,88,77,70,71,68,66,95,75,55,29.79,29.65,8,2,0,0.14
2013-6-3,83,72,65,69,63,51,96,75,52,29.77,29.68,6,2,0,0.37
2013-6-4,80,63,52,46,44,41,74,52,27,30.01,29.79,8,3,0,0.00
2013-6-5,78,62,45,51,46,39,83,57,36,30.10,29.98,6,2,0,0.00
2013-6-6,68,59,49,58,53,47,97,83,52,30.02,29.87,7,2,0,0.28
2013-6-7,61,60,58,60,59,57,99,97,96,29.87,29.52,6,2,0,2.66
2013-6-8,82,66,56,64,60,55,99,81,54,29.94,29.50,9,3,0,1.04
2013-6-9,88,69,55,62,58,54,98,72,39,30.06,29.94,5,2,0,0.00
2013-6-10,68,64,61,64,61,58,98,91,84,30.04,29.69,5,2,0,1.38
2013-6-11,81,70,62,67,63,58,99,80,62,29.69,29.50,11,3,0,0.17
2013-6-12,85,70,58,59,56,52,86,63,38,29.74,29.60,11,4,0,0.00
2013-6-13,61,59,54,59,57,53,97,93,86,29.73,29.33,7,2,0,1.19
2013-6-14,76,59,51,58,54,49,96,83,50,29.79,29.43,8,2,0,0.64
2013-6-15,86,67,53,58,54,50,99,68,31,29.91,29.79,8,2,0,0.00
2013-6-16,81,68,53,65,58,52,96,73,45,29.88,29.65,9,2,0,0.06
2013-6-17,91,75,62,68,63,57,94,70,32,29.79,29.71,9,2,0,0.07
2013-6-18,84,68,60,70,62,57,96,83,56,29.78,29.69,5,1,0,1.29
2013-6-19,87,66,54,59,52,47,96,67,29,30.04,29.77,7,2,0,0.03
2013-6-20,86,67,50,59,55,48,96,69,39,30.15,30.04,9,1,0,0.00
2013-6-21,88,71,57,62,57,50,87,62,39,30.18,30.11,7,2,0,0.00
2013-6-22,87,72,55,67,61,53,92,68,50,30.15,30.00,9,2,0,0.00
2013-6-23,91,77,66,71,67,62,87,72,51,30.07,29.94,9,3,0,0.00
2013-6-24,95,78,68,73,69,64,93,75,43,29.96,29.84,8,3,0,0.08
2013-6-25,92,78,66,72,68,64,97,75,49,29.89,29.69,8,2,0,0.05
2013-6-26,86,76,68,72,67,64,92,75,59,29.74,29.68,7,2,0,0.00
2013-6-27,89,76,66,73,68,64,96,79,57,29.71,29.41,6,2,0,1.22
2013-6-28,87,77,70,71,68,64,95,77,53,29.44,29.35,7,3,0,0.05
2013-6-29,92,76,66,68,65,63,93,72,42,29.59,29.36,7,2,0,0.00
2013-6-30,84,74,64,74,68,62,95,82,67,29.79,29.59,4,1,0,0.00
2013-7-1,80,73,69,73,71,68,98,92,78,29.92,29.77,4,1,0,2.37
2013-7-2,85,76,72,76,72,69,97,86,71,30.06,29.92,4,1,0,0.14
2013-7-3,87,78,70,76,72,68,92,80,66,30.13,30.06,7,2,0,0.00
2013-7-4,93,80,72,76,73,70,95,78,58,30.15,30.04,7,2,0,0.00
2013-7-5,96,83,72,76,72,69,94,72,48,30.11,29.99,7,3,0,0.00
2013-7-6,98,82,73,75,72,70,90,75,48,30.04,29.92,7,3,0,0.00
2013-7-7,96,82,69,77,73,66,95,75,52,29.96,29.82,16,2,0,0.17
2013-7-8,90,75,67,72,68,64,93,78,51,29.94,29.86,7,2,0,0.00
2013-7-9,90,76,66,73,68,63,92,77,55,29.97,29.88,8,2,0,0.32
2013-7-10,90,78,69,76,71,66,93,82,59,29.91,29.70,10,2,0,0.00
2013-7-11,87,77,69,72,69,62,91,77,55,29.83,29.70,5,1,0,0.06
2013-7-12,77,71,66,70,65,61,93,82,73,29.98,29.82,5,2,0,0.26
2013-7-13,80,71,65,76,69,63,99,94,87,30.17,29.98,5,2,0,0.15
2013-7-14,95,82,73,76,74,71,99,79,50,30.24,30.13,8,2,0,0.00
2013-7-15,100,83,72,76,74,72,99,76,44,30.15,30.04,6,2,0,0.00
2013-7-16,100,82,69,75,71,68,99,72,39,30.12,30.03,6,1,0,0.00
2013-7-17,100,83,70,75,72,68,99,72,40,30.10,29.96,7,2,0,0.00
2013-7-18,104,87,76,76,74,71,90,68,40,29.98,29.85,5,2,0,0.00
2013-7-19,97,86,75,78,75,72,93,72,49,29.87,29.69,9,2,0,0.00
2013-7-20,93,82,75,75,72,68,88,71,51,29.73,29.62,8,3,0,0.00
2013-7-21,92,79,71,72,68,64,93,70,43,29.84,29.73,4,1,0,0.00
2013-7-22,86,74,67,75,71,66,99,89,69,29.85,29.68,5,1,0,0.38
2013-7-23,90,77,71,75,72,70,99,87,60,29.68,29.44,8,2,0,1.44
2013-7-24,83,72,62,69,64,52,99,76,45,29.83,29.51,7,3,0,0.00
2013-7-25,70,64,59,61,55,50,88,74,67,29.94,29.82,5,2,0,0.00
2013-7-26,90,72,62,64,61,59,92,72,40,29.93,29.88,4,1,0,0.00
2013-7-27,86,72,57,66,62,56,99,74,46,29.93,29.82,5,1,0,0.00
2013-7-28,76,68,64,72,67,62,99,95,81,29.86,29.79,4,1,0,1.13
2013-7-29,85,72,62,67,62,55,99,75,38,29.99,29.83,6,2,0,0.00
2013-7-30,83,68,55,61,58,55,99,74,45,30.06,29.99,6,2,0,0.07
2013-7-31,84,69,55,64,60,55,99,76,47,30.05,29.91,5,1,0,0.00
2013-8-1,68,66,63,67,65,62,99,97,92,29.92,29.71,4,1,0,0.65
2013-8-2,84,72,60,67,63,60,99,77,47,29.80,29.68,6,2,0,0.00
2013-8-3,82,69,64,68,63,56,95,81,64,29.80,29.72,7,2,0,0.12
2013-8-4,80,68,56,62,57,51,99,73,45,29.86,29.74,9,2,0,0.00
2013-8-5,79,66,53,58,52,46,96,63,35,29.96,29.86,7,2,0,0.00
2013-8-6,84,67,52,63,57,52,99,74,40,30.01,29.92,5,1,0,0.00
2013-8-7,78,69,63,70,66,61,99,91,72,30.02,29.94,4,1,0,0.17
2013-8-8,87,73,68,76,71,68,99,94,71,29.95,29.87,5,1,0,0.40
2013-8-9,86,75,71,77,74,71,99,95,73,29.90,29.68,8,2,0,0.59
2013-8-10,86,73,62,71,65,61,99,79,48,29.94,29.77,6,2,0,0.00
2013-8-11,87,69,55,66,60,54,99,76,42,30.01,29.91,4,1,0,0.00
2013-8-12,90,72,65,69,64,57,99,80,40,29.92,29.81,5,1,0,0.32
2013-8-13,69,69,69,69,63,54,99,81,59,29.81,29.57,7,1,0,0.90
2013-8-14,69,69,69,67,61,57,91,76,65,29.95,29.66,12,4,0,0.00
2013-8-15,69,69,69,69,64,57,99,85,64,30.04,29.94,6,1,0,0.00
2013-8-16,69,69,69,69,64,58,99,82,66,30.09,30.01,7,1,0,0.00
2013-8-17,69,69,69,60,60,60,73,73,73,30.16,30.10,4,1,0,0.00
2013-8-18,69,69,69,60,60,60,73,73,73,30.15,30.02,3,0,0,0.02
2013-8-19,69,69,69,66,58,58,90,67,66,30.02,29.92,5,1,0,0.00
2013-8-20,69,69,69,66,57,54,89,65,57,30.03,29.94,5,2,0,0.00
2013-8-21,69,69,69,69,59,54,98,70,57,30.08,29.95,4,1,0,0.00
2013-8-22,69,69,69,69,62,54,99,77,59,29.96,29.76,4,1,0,1.33
2013-8-23,69,69,69,68,60,55,97,73,61,30.00,29.78,6,2,0,0.00
2013-8-24,69,69,69,69,62,54,98,77,58,30.24,30.01,6,1,0,0.00
2013-8-25,69,69,69,69,62,54,98,79,57,30.29,30.12,6,2,0,0.00
2013-8-26,69,69,69,69,65,54,99,86,57,30.11,29.80,8,3,0,0.11
2013-8-27,69,69,69,69,64,54,99,85,58,29.80,29.71,6,2,0,0.04
2013-8-28,69,69,69,68,56,54,97,64,58,29.79,29.73,8,1,0,0.14
2013-8-29,69,69,69,55,55,55,61,61,61,29.92,29.78,4,1,0,0.02
2013-8-30,69,69,69,55,55,55,61,61,61,29.92,29.74,6,2,0,0.00
2013-8-31,69,69,69,55,55,55,61,61,61,29.75,29.66,7,2,0,0.00
2013-9-1,69,69,69,55,55,55,61,61,61,29.73,29.67,4,1,0,0.00
2013-9-2,69,69,69,55,55,55,61,61,61,29.69,29.59,3,0,0,0.17
2013-9-3,69,69,69,55,55,55,61,61,61,29.78,29.61,7,2,0,0.84
2013-9-4,69,69,69,55,55,55,61,61,61,29.89,29.77,8,2,0,0.00
2013-9-5,69,69,69,55,55,55,61,61,61,30.05,29.80,11,2,0,0.00
2013-9-6,69,69,69,55,55,55,61,61,61,30.16,30.02,5,1,0,0.00
2013-9-7,69,69,69,55,55,55,61,61,61,30.03,29.78,5,1,0,0.00
2013-9-8,69,69,69,55,55,55,61,61,61,29.96,29.71,9,3,0,0.00
2013-9-9,69,69,69,55,55,55,61,61,61,30.13,29.96,7,1,0,0.00
2013-9-10,69,69,69,55,55,55,61,61,61,30.04,29.92,7,2,0,0.00
2013-9-11,69,69,69,55,55,55,61,61,61,30.01,29.86,6,2,0,0.00
2013-9-12,69,69,69,55,55,55,61,61,61,29.88,29.58,20,2,0,0.81
2013-9-13,69,69,69,55,55,55,61,61,61,29.75,29.53,9,3,0,0.06
2013-9-14,69,69,69,55,55,55,61,61,61,30.03,29.75,10,4,0,0.00
2013-9-15,69,69,69,55,55,55,61,61,61,30.12,29.97,6,1,0,0.00
2013-9-16,69,69,69,55,55,55,61,61,61,30.14,29.92,7,2,0,0.01
2013-9-17,69,69,69,55,55,55,61,61,61,30.34,30.15,5,2,0,0.00
2013-9-18,69,69,69,55,55,55,61,61,61,30.25,30.08,5,1,0,0.00
2013-9-19,69,69,69,55,55,55,61,61,61,30.08,29.96,7,1,0,0.00
2013-9-20,69,69,69,55,55,55,61,61,61,29.98,29.86,5,1,0,0.00
2013-9-21,69,69,69,55,55,55,61,61,61,29.89,29.54,7,1,0,0.63
2013-9-22,69,69,69,55,55,55,61,61,61,29.82,29.54,8,4,0,0.21
2013-9-23,69,69,69,55,55,55,61,61,61,29.94,29.81,9,3,0,0.00
2013-9-24,69,69,69,55,55,55,61,61,61,29.95,29.78,10,3,0,0.00
2013-9-25,69,69,69,55,55,55,61,61,61,29.86,29.77,8,1,0,0.00
2013-9-26,69,69,69,55,55,55,61,61,61,29.99,29.83,4,1,0,0.00
2013-9-27,69,69,69,55,55,55,61,61,61,30.16,29.99,6,1,0,0.00
2013-9-28,69,69,69,55,55,55,61,61,61,30.23,30.14,6,1,0,0.00
2013-9-29,69,69,69,55,55,55,61,61,61,30.13,29.96,5,1,0,0.00
2013-9-30,69,69,69,55,55,55,61,61,61,29.98,29.86,5,1,0,0.00
2013-10-1,69,69,69,55,55,55,61,61,61,29.91,29.79,5,1,0,0.00
2013-10-2,69,69,69,55,55,55,61,61,61,29.91,29.80,7,2,0,0.00
2013-10-3,69,69,69,55,55,55,61,61,61,30.01,29.91,3,1,0,0.00
2013-10-4,69,69,69,55,55,55,61,61,61,29.95,29.85,7,1,0,0.01
2013-10-5,69,69,69,55,55,55,61,61,61,29.98,29.90,5,1,0,0.01
2013-10-6,69,69,69,55,55,55,61,61,61,29.97,29.90,7,2,0,0.04
2013-10-7,69,69,69,69,57,55,98,66,61,29.89,29.61,14,3,0,1.02
2013-10-8,69,69,69,69,68,56,99,95,62,30.22,29.87,6,1,0,0.00
2013-10-9,69,69,69,69,69,69,99,99,99,30.30,30.18,8,2,0,0.00
2013-10-10,69,69,69,69,69,69,99,99,99,30.18,29.97,6,2,0,0.01
2013-10-11,69,69,69,69,69,69,99,99,99,29.99,29.92,8,2,0,0.00
2013-10-12,69,69,69,69,69,69,99,99,99,30.16,29.97,9,3,0,0.00
2013-10-13,69,69,69,69,69,69,99,99,99,30.29,30.16,7,2,0,0.00
2013-10-14,69,69,69,69,69,69,99,99,99,30.26,30.12,6,1,0,0.00
2013-10-15,69,69,69,69,69,69,99,99,99,30.15,30.00,5,1,0,0.00
2013-10-16,69,69,69,69,69,69,99,99,99,30.00,29.80,3,0,0,0.00
2013-10-17,69,69,69,69,69,69,99,99,99,29.80,29.55,9,1,0,0.01
2013-10-18,69,69,69,69,69,69,99,99,99,29.87,29.54,12,4,0,0.01
2013-10-19,69,69,69,69,69,69,99,99,99,29.88,29.63,4,1,0,0.08
2013-10-20,69,69,69,69,69,69,99,99,99,29.95,29.64,9,4,0,0.00
2013-10-21,69,69,69,69,69,69,99,99,99,30.04,29.87,6,1,0,0.00
2013-10-22,69,69,69,69,69,69,99,99,99,29.86,29.64,7,2,0,0.00
2013-10-23,69,69,69,69,69,69,99,99,99,29.70,29.50,8,1,0,0.00
2013-10-24,69,69,69,69,69,69,99,99,99,29.88,29.65,12,4,0,0.00
2013-10-25,69,69,69,69,69,69,99,99,99,30.11,29.88,10,3,0,0.00
2013-10-26,69,69,69,69,69,69,99,99,99,30.11,29.76,10,2,0,0.00
2013-10-27,69,69,69,69,69,69,99,99,99,30.01,29.73,11,4,0,0.00
2013-10-28,69,69,69,69,69,69,99,99,99,30.20,30.00,11,2,0,0.00
2013-10-29,69,69,69,69,69,69,99,99,99,30.31,30.20,5,1,0,0.00
2013-10-30,69,69,69,69,69,69,99,99,99,30.24,30.07,4,1,0,0.00
2013-10-31,69,69,69,69,69,69,99,99,99,30.11,29.68,5,1,0,0.04
2013-11-1,69,56,-40,69,49,-100,99,87,99,29.67,29.41,10,5,0,0.63